sensor_id;sensor_type;location;lat;lon;timestamp;pressure;altitude;pressure_sealevel;temperature;humidity
37132;BME280;23035;50.032;21.978;2023-02-04T00:03:52;65360.31;;;1.82;100.00
37132;BME280;23035;50.032;21.978;2023-02-04T00:08:57;65402.28;;;2.20;100.00
37132;BME280;23035;50.032;21.978;2023-02-04T00:14:01;65397.59;;;2.18;100.00
37132;BME280;23035;50.032;21.978;2023-02-04T00:19:07;65386.28;;;2.05;100.00
37132;BME280;23035;50.032;21.978;2023-02-04T00:24:12;65374.56;;;1.93;100.00
37132;BME280;23035;50.032;21.978;2023-02-04T00:29:16;65382.22;;;2.06;100.00
37132;BME280;23035;50.032;21.978;2023-02-04T00:34:22;65381.59;;;2.03;100.00
37132;BME280;23035;50.032;21.978;2023-02-04T00:39:27;65398.66;;;2.19;100.00
37132;BME280;23035;50.032;21.978;2023-02-04T00:44:31;65395.56;;;2.18;100.00
37132;BME280;23035;50.032;21.978;2023-02-04T00:49:39;65398.66;;;2.19;100.00
37132;BME280;23035;50.032;21.978;2023-02-04T00:54:44;65383.31;;;2.07;100.00
37132;BME280;23035;50.032;21.978;2023-02-04T00:59:49;65381.16;;;2.05;100.00
37132;BME280;23035;50.032;21.978;2023-02-04T01:04:55;65385.97;;;2.09;100.00
37132;BME280;23035;50.032;21.978;2023-02-04T01:09:59;65376.81;;;1.98;100.00
37132;BME280;23035;50.032;21.978;2023-02-04T01:15:04;65393.84;;;2.14;100.00
37132;BME280;23035;50.032;21.978;2023-02-04T01:20:11;65406.00;;;2.23;100.00
37132;BME280;23035;50.032;21.978;2023-02-04T01:25:15;65404.41;;;2.22;100.00
37132;BME280;23035;50.032;21.978;2023-02-04T01:30:20;65411.53;;;2.34;100.00
37132;BME280;23035;50.032;21.978;2023-02-04T01:35:26;65414.00;;;2.31;100.00
37132;BME280;23035;50.032;21.978;2023-02-04T01:40:30;65383.19;;;2.04;100.00
37132;BME280;23035;50.032;21.978;2023-02-04T01:45:35;65391.81;;;2.15;100.00
37132;BME280;23035;50.032;21.978;2023-02-04T01:50:41;65356.16;;;1.81;100.00
37132;BME280;23035;50.032;21.978;2023-02-04T01:55:46;65391.19;;;2.12;100.00
37132;BME280;23035;50.032;21.978;2023-02-04T02:00:51;65417.53;;;2.29;100.00
37132;BME280;23035;50.032;21.978;2023-02-04T02:05:57;65386.50;;;2.10;100.00
37132;BME280;23035;50.032;21.978;2023-02-04T02:11:02;65406.09;;;2.26;100.00
37132;BME280;23035;50.032;21.978;2023-02-04T02:16:07;65394.28;;;2.12;100.00
37132;BME280;23035;50.032;21.978;2023-02-04T02:21:15;65382.22;;;2.06;100.00
37132;BME280;23035;50.032;21.978;2023-02-04T02:26:24;65372.13;;;1.96;100.00
37132;BME280;23035;50.032;21.978;2023-02-04T02:31:29;65404.50;;;2.24;100.00
37132;BME280;23035;50.032;21.978;2023-02-04T02:36:33;65388.84;;;2.05;100.00
37132;BME280;23035;50.032;21.978;2023-02-04T02:41:42;65406.53;;;2.24;100.00
37132;BME280;23035;50.032;21.978;2023-02-04T02:46:48;65396.53;;;2.17;100.00
37132;BME280;23035;50.032;21.978;2023-02-04T02:51:52;65372.66;;;1.96;100.00
37132;BME280;23035;50.032;21.978;2023-02-04T02:56:58;65361.28;;;1.81;100.00
37132;BME280;23035;50.032;21.978;2023-02-04T03:02:03;65351.69;;;1.71;100.00
37132;BME280;23035;50.032;21.978;2023-02-04T03:07:10;65341.66;;;1.64;100.00
37132;BME280;23035;50.032;21.978;2023-02-04T03:12:18;65337.94;;;1.61;100.00
37132;BME280;23035;50.032;21.978;2023-02-04T03:17:23;65356.47;;;1.76;100.00
37132;BME280;23035;50.032;21.978;2023-02-04T03:22:28;65358.81;;;1.83;100.00
37132;BME280;23035;50.032;21.978;2023-02-04T03:27:34;65379.16;;;1.93;100.00
37132;BME280;23035;50.032;21.978;2023-02-04T03:32:39;65335.72;;;1.56;100.00
37132;BME280;23035;50.032;21.978;2023-02-04T03:37:44;65341.22;;;1.66;100.00
37132;BME280;23035;50.032;21.978;2023-02-04T03:42:50;65314.09;;;1.40;100.00
37132;BME280;23035;50.032;21.978;2023-02-04T03:47:55;65325.28;;;1.51;100.00
37132;BME280;23035;50.032;21.978;2023-02-04T03:53:00;65337.84;;;1.58;100.00
37132;BME280;23035;50.032;21.978;2023-02-04T03:58:06;65222.81;;;0.46;100.00
37132;BME280;23035;50.032;21.978;2023-02-04T04:03:11;65176.66;;;0.04;100.00
37132;BME280;23035;50.032;21.978;2023-02-04T04:08:18;65151.66;;;-0.20;100.00
37132;BME280;23035;50.032;21.978;2023-02-04T04:13:24;65152.22;;;-0.19;100.00
37132;BME280;23035;50.032;21.978;2023-02-04T04:18:29;65123.06;;;-0.45;100.00
37132;BME280;23035;50.032;21.978;2023-02-04T04:23:34;65143.16;;;-0.28;100.00
37132;BME280;23035;50.032;21.978;2023-02-04T04:28:40;65123.72;;;-0.42;100.00
37132;BME280;23035;50.032;21.978;2023-02-04T04:33:46;65128.81;;;-0.42;100.00
37132;BME280;23035;50.032;21.978;2023-02-04T04:38:50;65126.25;;;-0.42;100.00
37132;BME280;23035;50.032;21.978;2023-02-04T04:43:56;65100.88;;;-0.64;100.00
37132;BME280;23035;50.032;21.978;2023-02-04T04:49:01;65123.06;;;-0.45;100.00
37132;BME280;23035;50.032;21.978;2023-02-04T04:54:06;65106.06;;;-0.61;100.00
37132;BME280;23035;50.032;21.978;2023-02-04T04:59:12;65109.28;;;-0.58;100.00
37132;BME280;23035;50.032;21.978;2023-02-04T05:04:16;65123.50;;;-0.47;100.00
37132;BME280;23035;50.032;21.978;2023-02-04T05:09:21;65124.03;;;-0.46;100.00
37132;BME280;23035;50.032;21.978;2023-02-04T05:14:27;65101.19;;;-0.68;100.00
37132;BME280;23035;50.032;21.978;2023-02-04T05:19:32;65063.16;;;-1.00;100.00
37132;BME280;23035;50.032;21.978;2023-02-04T05:24:36;65061.97;;;-1.03;100.00
37132;BME280;23035;50.032;21.978;2023-02-04T05:29:42;65028.97;;;-1.37;100.00
37132;BME280;23035;50.032;21.978;2023-02-04T05:34:46;65054.00;;;-1.11;100.00
37132;BME280;23035;50.032;21.978;2023-02-04T05:39:51;65013.56;;;-1.52;100.00
37132;BME280;23035;50.032;21.978;2023-02-04T05:44:57;65001.66;;;-1.68;100.00
37132;BME280;23035;50.032;21.978;2023-02-04T05:50:02;64958.91;;;-2.05;100.00
37132;BME280;23035;50.032;21.978;2023-02-04T05:55:07;64987.13;;;-1.75;100.00
37132;BME280;23035;50.032;21.978;2023-02-04T06:00:14;65007.72;;;-1.58;100.00
37132;BME280;23035;50.032;21.978;2023-02-04T06:05:18;64950.50;;;-2.10;100.00
37132;BME280;23035;50.032;21.978;2023-02-04T06:10:25;64987.00;;;-1.78;100.00
37132;BME280;23035;50.032;21.978;2023-02-04T06:15:30;64979.59;;;-1.85;100.00
37132;BME280;23035;50.032;21.978;2023-02-04T06:20:35;64963.13;;;-2.00;100.00
37132;BME280;23035;50.032;21.978;2023-02-04T06:25:39;64961.66;;;-1.99;100.00
37132;BME280;23035;50.032;21.978;2023-02-04T06:30:45;64949.97;;;-2.11;100.00
37132;BME280;23035;50.032;21.978;2023-02-04T06:35:51;64940.84;;;-2.22;100.00
37132;BME280;23035;50.032;21.978;2023-02-04T06:40:56;64964.84;;;-1.96;100.00
37132;BME280;23035;50.032;21.978;2023-02-04T06:46:02;64941.91;;;-2.21;100.00
37132;BME280;23035;50.032;21.978;2023-02-04T06:51:07;64957.84;;;-2.06;100.00
37132;BME280;23035;50.032;21.978;2023-02-04T06:56:11;64937.66;;;-2.25;100.00
37132;BME280;23035;50.032;21.978;2023-02-04T07:01:17;64933.53;;;-2.26;100.00
37132;BME280;23035;50.032;21.978;2023-02-04T07:06:22;64923.22;;;-2.41;100.00
37132;BME280;23035;50.032;21.978;2023-02-04T07:11:26;64930.25;;;-2.32;100.00
37132;BME280;23035;50.032;21.978;2023-02-04T07:16:32;64917.50;;;-2.44;100.00
37132;BME280;23035;50.032;21.978;2023-02-04T07:21:37;64935.53;;;-2.27;100.00
37132;BME280;23035;50.032;21.978;2023-02-04T07:26:41;64925.97;;;-2.36;100.00
37132;BME280;23035;50.032;21.978;2023-02-04T07:31:47;64949.25;;;-2.16;100.00
37132;BME280;23035;50.032;21.978;2023-02-04T07:36:53;64962.06;;;-2.02;100.00
37132;BME280;23035;50.032;21.978;2023-02-04T07:41:58;64936.72;;;-2.23;100.00
37132;BME280;23035;50.032;21.978;2023-02-04T07:47:10;64911.13;;;-2.50;100.00
37132;BME280;23035;50.032;21.978;2023-02-04T07:52:15;64926.41;;;-2.38;100.00
37132;BME280;23035;50.032;21.978;2023-02-04T07:57:19;64943.28;;;-2.24;100.00
37132;BME280;23035;50.032;21.978;2023-02-04T08:02:25;64910.19;;;-2.49;100.00
37132;BME280;23035;50.032;21.978;2023-02-04T08:07:30;64928.75;;;-2.31;100.00
37132;BME280;23035;50.032;21.978;2023-02-04T08:12:35;64906.38;;;-2.55;100.00
37132;BME280;23035;50.032;21.978;2023-02-04T08:17:41;64951.22;;;-2.17;100.00
37132;BME280;23035;50.032;21.978;2023-02-04T08:22:46;64931.19;;;-2.34;100.00
37132;BME280;23035;50.032;21.978;2023-02-04T08:27:50;64955.16;;;-2.08;100.00
37132;BME280;23035;50.032;21.978;2023-02-04T08:32:56;64923.56;;;-2.34;100.00
37132;BME280;23035;50.032;21.978;2023-02-04T08:38:01;64931.72;;;-2.33;100.00
37132;BME280;23035;50.032;21.978;2023-02-04T08:43:05;64959.94;;;-2.04;100.00
37132;BME280;23035;50.032;21.978;2023-02-04T08:48:11;64950.94;;;-2.12;100.00
37132;BME280;23035;50.032;21.978;2023-02-04T08:53:16;64942.53;;;-2.18;100.00
37132;BME280;23035;50.032;21.978;2023-02-04T08:58:20;64926.53;;;-2.36;100.00
37132;BME280;23035;50.032;21.978;2023-02-04T09:03:26;64941.38;;;-2.21;100.00
37132;BME280;23035;50.032;21.978;2023-02-04T09:08:31;64929.19;;;-2.33;100.00
37132;BME280;23035;50.032;21.978;2023-02-04T09:13:36;64937.00;;;-2.28;100.00
37132;BME280;23035;50.032;21.978;2023-02-04T09:18:42;64943.59;;;-2.17;100.00
37132;BME280;23035;50.032;21.978;2023-02-04T09:23:47;64956.97;;;-2.02;100.00
37132;BME280;23035;50.032;21.978;2023-02-04T09:28:51;64932.78;;;-2.32;100.00
37132;BME280;23035;50.032;21.978;2023-02-04T09:33:57;64942.13;;;-2.16;100.00
37132;BME280;23035;50.032;21.978;2023-02-04T09:39:02;64955.59;;;-2.10;100.00
37132;BME280;23035;50.032;21.978;2023-02-04T09:44:12;64942.88;;;-2.22;100.00
37132;BME280;23035;50.032;21.978;2023-02-04T09:49:19;64951.47;;;-2.12;100.00
37132;BME280;23035;50.032;21.978;2023-02-04T09:54:24;64955.81;;;-2.05;100.00
37132;BME280;23035;50.032;21.978;2023-02-04T09:59:28;64968.03;;;-1.93;100.00
37132;BME280;23035;50.032;21.978;2023-02-04T10:04:35;65021.41;;;-1.47;100.00
37132;BME280;23035;50.032;21.978;2023-02-04T10:09:40;65022.69;;;-1.41;100.00
37132;BME280;23035;50.032;21.978;2023-02-04T10:14:45;65020.03;;;-1.43;100.00
37132;BME280;23035;50.032;21.978;2023-02-04T10:19:51;65042.66;;;-1.14;100.00
37132;BME280;23035;50.032;21.978;2023-02-04T10:24:56;64992.53;;;-1.67;100.00
37132;BME280;23035;50.032;21.978;2023-02-04T10:30:00;64974.28;;;-1.90;100.00
37132;BME280;23035;50.032;21.978;2023-02-04T10:35:13;64941.38;;;-2.21;100.00
37132;BME280;23035;50.032;21.978;2023-02-04T10:40:26;64969.50;;;-1.94;100.00
37132;BME280;23035;50.032;21.978;2023-02-04T10:45:31;64998.16;;;-1.67;100.00
37132;BME280;23035;50.032;21.978;2023-02-04T10:50:37;65025.56;;;-1.46;100.00
37132;BME280;23035;50.032;21.978;2023-02-04T10:55:42;65004.00;;;-1.61;100.00
37132;BME280;23035;50.032;21.978;2023-02-04T11:00:47;65029.69;;;-1.32;100.00
37132;BME280;23035;50.032;21.978;2023-02-04T11:05:56;65043.94;;;-1.21;100.00
37132;BME280;23035;50.032;21.978;2023-02-04T11:11:04;65084.91;;;-0.79;100.00
37132;BME280;23035;50.032;21.978;2023-02-04T11:16:22;65114.16;;;-0.51;100.00
37132;BME280;23035;50.032;21.978;2023-02-04T11:21:42;65095.34;;;-0.74;100.00
37132;BME280;23035;50.032;21.978;2023-02-04T11:26:48;65093.31;;;-0.73;100.00
37132;BME280;23035;50.032;21.978;2023-02-04T11:32:01;65069.72;;;-1.01;100.00
37132;BME280;23035;50.032;21.978;2023-02-04T11:42:39;65066.56;;;-1.04;100.00
37132;BME280;23035;50.032;21.978;2023-02-04T11:47:45;65051.91;;;-1.13;100.00
37132;BME280;23035;50.032;21.978;2023-02-04T11:52:54;65066.66;;;-1.01;100.00
37132;BME280;23035;50.032;21.978;2023-02-04T11:57:59;65057.63;;;-1.10;100.00
37132;BME280;23035;50.032;21.978;2023-02-04T12:03:04;65058.69;;;-1.09;100.00
37132;BME280;23035;50.032;21.978;2023-02-04T12:08:30;65010.38;;;-1.55;100.00
37132;BME280;23035;50.032;21.978;2023-02-04T12:13:46;64996.16;;;-1.66;100.00
37132;BME280;23035;50.032;21.978;2023-02-04T12:18:51;65004.09;;;-1.59;100.00
37132;BME280;23035;50.032;21.978;2023-02-04T12:23:58;65013.44;;;-1.55;100.00
37132;BME280;23035;50.032;21.978;2023-02-04T12:29:03;65029.38;;;-1.39;100.00
37132;BME280;23035;50.032;21.978;2023-02-04T12:34:07;65020.88;;;-1.48;100.00
37132;BME280;23035;50.032;21.978;2023-02-04T12:39:13;65007.19;;;-1.58;100.00
37132;BME280;23035;50.032;21.978;2023-02-04T12:44:18;65010.91;;;-1.55;100.00
37132;BME280;23035;50.032;21.978;2023-02-04T12:49:22;64969.19;;;-1.90;100.00
37132;BME280;23035;50.032;21.978;2023-02-04T12:54:28;64994.44;;;-1.70;100.00
37132;BME280;23035;50.032;21.978;2023-02-04T12:59:33;64953.69;;;-2.07;100.00
37132;BME280;23035;50.032;21.978;2023-02-04T13:04:38;64965.25;;;-1.98;100.00
37132;BME280;23035;50.032;21.978;2023-02-04T13:09:44;64978.75;;;-1.81;100.00
37132;BME280;23035;50.032;21.978;2023-02-04T13:14:49;65034.38;;;-1.30;100.00
37132;BME280;23035;50.032;21.978;2023-02-04T13:19:57;64976.91;;;-1.87;100.00
37132;BME280;23035;50.032;21.978;2023-02-04T13:25:04;64979.28;;;-1.80;100.00
37132;BME280;23035;50.032;21.978;2023-02-04T13:30:12;64947.22;;;-2.16;100.00
37132;BME280;23035;50.032;21.978;2023-02-04T13:35:17;64989.69;;;-1.75;100.00
37132;BME280;23035;50.032;21.978;2023-02-04T13:40:23;64976.00;;;-1.86;100.00
37132;BME280;23035;50.032;21.978;2023-02-04T13:45:28;64949.88;;;-2.13;100.00
37132;BME280;23035;50.032;21.978;2023-02-04T13:50:33;64926.84;;;-2.40;100.00
37132;BME280;23035;50.032;21.978;2023-02-04T13:55:39;64944.44;;;-2.21;100.00
37132;BME280;23035;50.032;21.978;2023-02-04T14:00:44;64961.13;;;-2.00;100.00
37132;BME280;23035;50.032;21.978;2023-02-04T14:05:49;64947.00;;;-2.21;100.00
37132;BME280;23035;50.032;21.978;2023-02-04T14:10:55;64971.09;;;-1.93;100.00
37132;BME280;23035;50.032;21.978;2023-02-04T14:15:59;64963.66;;;-2.00;100.00
37132;BME280;23035;50.032;21.978;2023-02-04T14:21:04;64924.53;;;-2.35;100.00
37132;BME280;23035;50.032;21.978;2023-02-04T14:26:10;64952.53;;;-2.11;100.00
37132;BME280;23035;50.032;21.978;2023-02-04T14:31:15;64918.69;;;-2.41;100.00
37132;BME280;23035;50.032;21.978;2023-02-04T14:36:20;64910.19;;;-2.49;100.00
37132;BME280;23035;50.032;21.978;2023-02-04T14:41:26;64908.91;;;-2.55;100.00
37132;BME280;23035;50.032;21.978;2023-02-04T14:46:34;64926.41;;;-2.38;100.00
37132;BME280;23035;50.032;21.978;2023-02-04T14:51:39;64884.22;;;-2.74;100.00
37132;BME280;23035;50.032;21.978;2023-02-04T14:56:45;64887.16;;;-2.76;100.00
37132;BME280;23035;50.032;21.978;2023-02-04T15:01:50;64878.69;;;-2.84;100.00
37132;BME280;23035;50.032;21.978;2023-02-04T15:06:54;64863.41;;;-2.96;100.00
37132;BME280;23035;50.032;21.978;2023-02-04T15:12:01;64858.13;;;-3.01;100.00
37132;BME280;23035;50.032;21.978;2023-02-04T15:17:06;64846.47;;;-3.12;100.00
37132;BME280;23035;50.032;21.978;2023-02-04T15:22:11;64863.41;;;-2.96;100.00
37132;BME280;23035;50.032;21.978;2023-02-04T15:27:17;64868.72;;;-2.91;100.00
37132;BME280;23035;50.032;21.978;2023-02-04T15:32:21;64827.78;;;-3.33;100.00
37132;BME280;23035;50.032;21.978;2023-02-04T15:37:26;64781.03;;;-3.80;100.00
37132;BME280;23035;50.032;21.978;2023-02-04T15:42:32;64806.16;;;-3.51;100.00
37132;BME280;23035;50.032;21.978;2023-02-04T15:47:38;64799.06;;;-3.63;100.00
37132;BME280;23035;50.032;21.978;2023-02-04T15:52:43;64809.75;;;-3.50;100.00
37132;BME280;23035;50.032;21.978;2023-02-04T15:57:49;64804.16;;;-3.51;100.00
37132;BME280;23035;50.032;21.978;2023-02-04T16:02:54;64800.88;;;-3.56;100.00
37132;BME280;23035;50.032;21.978;2023-02-04T16:07:59;64814.13;;;-3.43;100.00
37132;BME280;23035;50.032;21.978;2023-02-04T16:13:05;64789.22;;;-3.67;100.00
37132;BME280;23035;50.032;21.978;2023-02-04T16:18:10;64776.50;;;-3.80;100.00
37132;BME280;23035;50.032;21.978;2023-02-04T16:23:15;64784.56;;;-3.69;100.00
37132;BME280;23035;50.032;21.978;2023-02-04T16:28:21;64770.13;;;-3.86;100.00
37132;BME280;23035;50.032;21.978;2023-02-04T16:33:25;64799.28;;;-3.58;100.00
37132;BME280;23035;50.032;21.978;2023-02-04T16:38:36;64781.25;;;-3.75;100.00
37132;BME280;23035;50.032;21.978;2023-02-04T16:43:43;64788.78;;;-3.65;100.00
37132;BME280;23035;50.032;21.978;2023-02-04T16:48:48;64795.56;;;-3.61;100.00
37132;BME280;23035;50.032;21.978;2023-02-04T16:53:52;64801.38;;;-3.56;100.00
37132;BME280;23035;50.032;21.978;2023-02-04T16:58:58;64821.00;;;-3.37;100.00
37132;BME280;23035;50.032;21.978;2023-02-04T17:04:03;64801.00;;;-3.54;100.00
37132;BME280;23035;50.032;21.978;2023-02-04T17:09:07;64800.34;;;-3.57;100.00
37132;BME280;23035;50.032;21.978;2023-02-04T17:14:13;64802.56;;;-3.52;100.00
37132;BME280;23035;50.032;21.978;2023-02-04T17:19:18;64827.91;;;-3.30;100.00
37132;BME280;23035;50.032;21.978;2023-02-04T17:24:24;64809.88;;;-3.48;100.00
37132;BME280;23035;50.032;21.978;2023-02-04T17:29:30;64777.56;;;-3.79;100.00
37132;BME280;23035;50.032;21.978;2023-02-04T17:34:35;64796.63;;;-3.60;100.00
37132;BME280;23035;50.032;21.978;2023-02-04T17:39:39;64770.13;;;-3.86;100.00
37132;BME280;23035;50.032;21.978;2023-02-04T17:44:45;64745.25;;;-4.10;100.00
37132;BME280;23035;50.032;21.978;2023-02-04T17:49:49;64745.25;;;-4.10;100.00
37132;BME280;23035;50.032;21.978;2023-02-04T17:54:54;64759.44;;;-3.98;100.00
37132;BME280;23035;50.032;21.978;2023-02-04T18:00:00;64749.19;;;-4.01;100.00
37132;BME280;23035;50.032;21.978;2023-02-04T18:05:14;64789.09;;;-3.70;100.00
37132;BME280;23035;50.032;21.978;2023-02-04T18:10:24;64766.84;;;-3.91;100.00
37132;BME280;23035;50.032;21.978;2023-02-04T18:15:35;64741.31;;;-4.18;100.00
37132;BME280;23035;50.032;21.978;2023-02-04T18:20:40;64749.38;;;-4.08;100.00
37132;BME280;23035;50.032;21.978;2023-02-04T18:25:45;64771.19;;;-3.85;100.00
37132;BME280;23035;50.032;21.978;2023-02-04T18:30:53;64753.31;;;-3.99;100.00
37132;BME280;23035;50.032;21.978;2023-02-04T18:36:01;64751.28;;;-3.99;100.00
37132;BME280;23035;50.032;21.978;2023-02-04T18:41:20;64770.66;;;-3.85;100.00
37132;BME280;23035;50.032;21.978;2023-02-04T18:46:35;64762.31;;;-3.91;100.00
37132;BME280;23035;50.032;21.978;2023-02-04T18:51:43;64804.78;;;-3.48;100.00
37132;BME280;23035;50.032;21.978;2023-02-04T18:56:47;64795.56;;;-3.61;100.00
37132;BME280;23035;50.032;21.978;2023-02-04T19:01:53;64807.66;;;-3.52;100.00
37132;BME280;23035;50.032;21.978;2023-02-04T19:06:58;64823.66;;;-3.34;100.00
37132;BME280;23035;50.032;21.978;2023-02-04T19:12:13;64782.56;;;-3.69;100.00
37132;BME280;23035;50.032;21.978;2023-02-04T19:17:24;64766.00;;;-3.87;100.00
37132;BME280;23035;50.032;21.978;2023-02-04T19:22:38;64783.25;;;-3.76;100.00
37132;BME280;23035;50.032;21.978;2023-02-04T19:27:46;64775.25;;;-3.73;100.00
37132;BME280;23035;50.032;21.978;2023-02-04T19:32:56;64777.56;;;-3.79;100.00
37132;BME280;23035;50.032;21.978;2023-02-04T19:38:10;64762.06;;;-3.96;100.00
37132;BME280;23035;50.032;21.978;2023-02-04T19:43:29;64761.25;;;-3.92;100.00
37132;BME280;23035;50.032;21.978;2023-02-04T19:48:38;64748.94;;;-4.06;100.00
37132;BME280;23035;50.032;21.978;2023-02-04T19:53:42;64765.38;;;-3.90;100.00
37132;BME280;23035;50.032;21.978;2023-02-04T19:58:53;64800.88;;;-3.56;100.00
37132;BME280;23035;50.032;21.978;2023-02-04T20:04:00;64798.97;;;-3.53;100.00
37132;BME280;23035;50.032;21.978;2023-02-04T20:09:10;64809.44;;;-3.46;100.00
37132;BME280;23035;50.032;21.978;2023-02-04T20:14:28;64823.00;;;-3.37;100.00
37132;BME280;23035;50.032;21.978;2023-02-04T20:19:40;64831.59;;;-3.27;100.00
37132;BME280;23035;50.032;21.978;2023-02-04T20:24:46;64809.34;;;-3.48;100.00
37132;BME280;23035;50.032;21.978;2023-02-04T20:29:59;64792.38;;;-3.64;100.00
37132;BME280;23035;50.032;21.978;2023-02-04T20:40:51;64772.25;;;-3.84;100.00
37132;BME280;23035;50.032;21.978;2023-02-04T20:45:58;64749.47;;;-4.06;100.00
37132;BME280;23035;50.032;21.978;2023-02-04T20:51:15;64763.56;;;-3.97;100.00
37132;BME280;23035;50.032;21.978;2023-02-04T20:56:26;64744.28;;;-4.08;100.00
37132;BME280;23035;50.032;21.978;2023-02-04T21:01:32;64755.84;;;-3.99;100.00
37132;BME280;23035;50.032;21.978;2023-02-04T21:06:39;64736.78;;;-4.18;100.00
37132;BME280;23035;50.032;21.978;2023-02-04T21:11:43;64735.19;;;-4.19;100.00
37132;BME280;23035;50.032;21.978;2023-02-04T21:16:48;64741.00;;;-4.14;100.00
37132;BME280;23035;50.032;21.978;2023-02-04T21:21:54;64762.31;;;-3.91;100.00
37132;BME280;23035;50.032;21.978;2023-02-04T21:26:59;64755.72;;;-4.02;100.00
37132;BME280;23035;50.032;21.978;2023-02-04T21:32:03;64726.81;;;-4.25;100.00
37132;BME280;23035;50.032;21.978;2023-02-04T21:37:09;64744.72;;;-4.10;100.00
37132;BME280;23035;50.032;21.978;2023-02-04T21:42:15;64721.94;;;-4.32;100.00
37132;BME280;23035;50.032;21.978;2023-02-04T21:47:20;64743.66;;;-4.11;100.00
37132;BME280;23035;50.032;21.978;2023-02-04T21:52:26;64737.28;;;-4.17;100.00
37132;BME280;23035;50.032;21.978;2023-02-04T21:57:30;64774.69;;;-3.86;100.00
37132;BME280;23035;50.032;21.978;2023-02-04T22:02:35;64754.66;;;-4.03;100.00
37132;BME280;23035;50.032;21.978;2023-02-04T22:07:41;64747.47;;;-4.05;100.00
37132;BME280;23035;50.032;21.978;2023-02-04T22:12:46;64762.72;;;-3.93;100.00
37132;BME280;23035;50.032;21.978;2023-02-04T22:17:51;64805.66;;;-3.52;100.00
37132;BME280;23035;50.032;21.978;2023-02-04T22:22:57;64765.06;;;-3.86;100.00
37132;BME280;23035;50.032;21.978;2023-02-04T22:28:01;64759.84;;;-4.00;100.00
37132;BME280;23035;50.032;21.978;2023-02-04T22:33:06;64744.72;;;-4.10;100.00
37132;BME280;23035;50.032;21.978;2023-02-04T22:38:14;64806.69;;;-3.51;100.00
37132;BME280;23035;50.032;21.978;2023-02-04T22:43:21;64786.56;;;-3.70;100.00
37132;BME280;23035;50.032;21.978;2023-02-04T22:48:26;64762.19;;;-3.93;100.00
37132;BME280;23035;50.032;21.978;2023-02-04T22:53:32;64769.84;;;-3.81;100.00
37132;BME280;23035;50.032;21.978;2023-02-04T22:58:36;64729.25;;;-4.27;100.00
37132;BME280;23035;50.032;21.978;2023-02-04T23:03:41;64725.22;;;-4.26;100.00
37132;BME280;23035;50.032;21.978;2023-02-04T23:08:47;64730.94;;;-4.23;100.00
37132;BME280;23035;50.032;21.978;2023-02-04T23:13:52;64723.00;;;-4.31;100.00
37132;BME280;23035;50.032;21.978;2023-02-04T23:18:57;64719.00;;;-4.30;100.00
37132;BME280;23035;50.032;21.978;2023-02-04T23:24:03;64727.22;;;-4.27;100.00
37132;BME280;23035;50.032;21.978;2023-02-04T23:29:08;64739.41;;;-4.15;100.00
37132;BME280;23035;50.032;21.978;2023-02-04T23:34:12;64734.66;;;-4.20;100.00
37132;BME280;23035;50.032;21.978;2023-02-04T23:39:18;64733.72;;;-4.18;100.00
37132;BME280;23035;50.032;21.978;2023-02-04T23:44:23;64723.00;;;-4.31;100.00
37132;BME280;23035;50.032;21.978;2023-02-04T23:49:28;64769.06;;;-3.87;100.00
37132;BME280;23035;50.032;21.978;2023-02-04T23:54:34;64750.78;;;-3.99;100.00
37132;BME280;23035;50.032;21.978;2023-02-04T23:59:39;64777.56;;;-3.79;100.00
